createdAt,value
2023-02-08T00:01:46.139Z,102972.79
2023-02-08T00:04:15.499Z,102970.25
2023-02-08T00:06:45.788Z,102973.47
2023-02-08T00:09:15.377Z,102973.60
2023-02-08T00:11:44.667Z,102983.89
2023-02-08T00:14:14.044Z,102984.34
2023-02-08T00:16:43.273Z,102985.77
2023-02-08T00:19:14.250Z,102982.22
2023-02-08T00:21:43.663Z,102977.30
2023-02-08T00:24:13.746Z,102977.30
2023-02-08T00:26:43.325Z,102975.87
2023-02-08T00:29:12.591Z,102978.06
2023-02-08T00:31:41.647Z,102986.53
2023-02-08T00:34:11.092Z,102990.17
2023-02-08T00:36:42.948Z,102994.33
2023-02-08T00:39:13.018Z,102994.42
2023-02-08T00:41:44.386Z,102997.58
2023-02-08T00:44:14.619Z,102999.87
2023-02-08T00:46:44.336Z,102998.58
2023-02-08T00:49:13.662Z,102994.48
2023-02-08T00:51:43.701Z,103000.22
2023-02-08T00:54:15.511Z,103000.64
2023-02-08T00:56:44.489Z,103003.64
2023-02-08T00:59:13.811Z,103014.33
2023-02-08T01:01:44.684Z,103026.83
2023-02-08T01:04:13.765Z,103026.01
2023-02-08T01:06:44.212Z,103026.06
2023-02-08T01:09:14.147Z,103029.75
2023-02-08T01:11:45.219Z,103024.50
2023-02-08T01:14:14.560Z,103034.19
2023-02-08T01:16:43.936Z,103039.07
2023-02-08T01:19:12.887Z,103047.11
2023-02-08T01:21:42.299Z,103053.35
2023-02-08T01:24:11.383Z,103059.64
2023-02-08T01:26:40.823Z,103056.56
2023-02-08T01:29:13.596Z,103054.83
2023-02-08T01:31:43.560Z,103060.25
2023-02-08T01:34:12.992Z,103060.70
2023-02-08T01:36:43.499Z,103068.66
2023-02-08T01:39:12.431Z,103069.14
2023-02-08T01:41:44.081Z,103070.58
2023-02-08T01:44:18.865Z,103077.30
2023-02-08T01:46:51.198Z,103084.89
2023-02-08T01:49:26.792Z,103093.84
2023-02-08T01:52:03.757Z,103096.97
2023-02-08T01:54:38.202Z,103098.28
2023-02-08T01:57:07.429Z,103108.14
2023-02-08T01:59:41.431Z,103107.67
2023-02-08T02:02:13.042Z,103106.36
2023-02-08T02:04:43.052Z,103108.59
2023-02-08T02:07:11.794Z,103108.98
2023-02-08T02:09:52.262Z,103110.66
2023-02-08T02:12:22.293Z,103118.19
2023-02-08T02:14:52.711Z,103122.17
2023-02-08T02:17:22.176Z,103115.95
2023-02-08T02:20:20.346Z,103116.38
2023-02-08T02:23:28.043Z,103127.01
2023-02-08T02:26:39.561Z,103125.72
2023-02-08T02:29:56.609Z,103125.32
2023-02-08T02:32:42.758Z,103128.97
2023-02-08T02:35:34.977Z,103124.54
2023-02-08T02:38:12.808Z,103128.13
2023-02-08T02:41:23.138Z,103129.04
2023-02-08T02:43:55.934Z,103137.52
2023-02-08T02:46:28.830Z,103142.03
2023-02-08T02:49:20.878Z,103139.86
2023-02-08T02:52:12.192Z,103142.19
2023-02-08T02:54:51.685Z,103142.64
2023-02-08T02:57:26.814Z,103142.25
2023-02-08T02:59:57.794Z,103140.19
2023-02-08T03:02:27.614Z,103144.67
2023-02-08T03:04:57.855Z,103142.87
2023-02-08T03:07:35.451Z,103147.29
2023-02-08T03:10:13.746Z,103148.66
2023-02-08T03:13:13.436Z,103153.64
2023-02-08T03:16:18.590Z,103156.41
2023-02-08T03:19:10.657Z,103166.59
2023-02-08T03:21:50.990Z,103168.81
2023-02-08T03:24:43.614Z,103168.78
2023-02-08T03:27:37.570Z,103166.91
2023-02-08T03:30:14.895Z,103176.25
2023-02-08T03:33:19.100Z,103175.94
2023-02-08T03:35:57.134Z,103173.33
2023-02-08T03:38:34.300Z,103177.76
2023-02-08T03:41:04.473Z,103181.31
2023-02-08T03:43:55.217Z,103186.58
2023-02-08T03:46:34.899Z,103195.48
2023-02-08T03:49:09.435Z,103200.81
2023-02-08T03:51:41.582Z,103199.97
2023-02-08T03:54:21.052Z,103200.89
2023-02-08T03:57:09.721Z,103199.63
2023-02-08T03:59:42.420Z,103201.85
2023-02-08T04:02:14.465Z,103199.19
2023-02-08T04:04:46.622Z,103200.17
2023-02-08T04:07:17.176Z,103210.42
2023-02-08T04:09:45.983Z,103214.41
2023-02-08T04:12:14.913Z,103220.19
2023-02-08T04:14:43.886Z,103232.63
2023-02-08T04:17:14.673Z,103227.72
2023-02-08T04:19:44.238Z,103231.23
2023-02-08T04:22:13.052Z,103238.34
2023-02-08T04:24:43.115Z,103244.54
2023-02-08T04:27:12.780Z,103240.99
2023-02-08T04:29:42.157Z,103242.72
2023-02-08T04:32:11.642Z,103241.84
2023-02-08T04:34:41.119Z,103249.86
2023-02-08T04:37:11.667Z,103257.83
2023-02-08T04:39:40.632Z,103255.19
2023-02-08T04:42:09.213Z,103253.89
2023-02-08T04:44:39.017Z,103253.44
2023-02-08T04:47:07.923Z,103258.77
2023-02-08T04:49:36.973Z,103265.50
2023-02-08T04:52:06.037Z,103269.59
2023-02-08T04:54:35.665Z,103272.72
2023-02-08T04:57:04.702Z,103274.89
2023-02-08T04:59:34.402Z,103274.86
2023-02-08T05:02:04.209Z,103282.84
2023-02-08T05:04:34.021Z,103272.20
2023-02-08T05:07:05.833Z,103272.61
2023-02-08T05:09:34.799Z,103272.59
2023-02-08T05:12:03.650Z,103287.72
2023-02-08T05:14:33.224Z,103281.49
2023-02-08T05:17:02.207Z,103285.49
2023-02-08T05:19:31.473Z,103287.72
2023-02-08T05:22:01.289Z,103291.35
2023-02-08T05:24:34.333Z,103297.17
2023-02-08T05:27:03.709Z,103290.54
2023-02-08T05:29:32.611Z,103298.97
2023-02-08T05:32:01.615Z,103312.73
2023-02-08T05:34:31.343Z,103306.55
2023-02-08T05:37:00.898Z,103315.92
2023-02-08T05:39:30.352Z,103320.38
2023-02-08T05:41:59.062Z,103314.17
2023-02-08T05:44:28.099Z,103322.15
2023-02-08T05:46:56.870Z,103323.91
2023-02-08T05:49:26.907Z,103322.60
2023-02-08T05:51:55.707Z,103328.83
2023-02-08T05:54:24.858Z,103332.36
2023-02-08T05:56:53.819Z,103334.59
2023-02-08T05:59:22.667Z,103338.13
2023-02-08T06:01:51.583Z,103341.22
2023-02-08T06:04:20.374Z,103339.87
2023-02-08T06:06:50.927Z,103343.91
2023-02-08T06:09:21.545Z,103342.13
2023-02-08T06:11:51.621Z,103350.98
2023-02-08T06:14:21.335Z,103352.36
2023-02-08T06:16:50.399Z,103348.36
2023-02-08T06:19:20.568Z,103352.38
2023-02-08T06:21:49.347Z,103351.92
2023-02-08T06:24:18.647Z,103346.13
2023-02-08T06:26:49.062Z,103354.52
2023-02-08T06:29:19.836Z,103357.14
2023-02-08T06:31:49.014Z,103357.58
2023-02-08T06:34:17.631Z,103363.84
2023-02-08T06:36:46.275Z,103360.75
2023-02-08T06:39:15.229Z,103370.52
2023-02-08T06:41:44.216Z,103377.62
2023-02-08T06:44:13.156Z,103371.84
2023-02-08T06:46:43.737Z,103377.59
2023-02-08T06:49:12.422Z,103381.57
2023-02-08T06:51:42.537Z,103379.78
2023-02-08T06:54:11.288Z,103386.91
2023-02-08T06:56:42.535Z,103382.95
2023-02-08T06:59:13.059Z,103379.84
2023-02-08T07:01:42.476Z,103377.16
2023-02-08T10:07:51.586Z,103343.92
2023-02-08T10:10:47.706Z,103337.11
2023-02-08T10:13:41.407Z,103337.11
2023-02-08T10:16:32.033Z,103335.16
2023-02-08T10:19:38.080Z,103340.45
2023-02-08T10:22:32.283Z,103346.02
2023-02-08T10:25:32.316Z,103338.35
2023-02-08T10:28:34.370Z,103341.84
2023-02-08T10:31:11.906Z,103347.47
2023-02-08T10:34:02.421Z,103337.47
2023-02-08T10:36:38.943Z,103348.08
2023-02-08T10:39:27.508Z,103340.95
2023-02-08T10:42:03.409Z,103349.39
2023-02-08T10:44:58.713Z,103346.08
2023-02-08T10:47:42.742Z,103344.16
2023-02-08T10:50:38.048Z,103342.70
2023-02-08T10:53:09.308Z,103337.67
2023-02-08T10:55:47.081Z,103341.16
2023-02-08T10:58:20.111Z,103337.05
2023-02-08T11:00:55.057Z,103340.23
2023-02-08T11:03:31.399Z,103337.55
2023-02-08T11:05:58.637Z,103338.89
2023-02-08T11:08:30.264Z,103348.66
2023-02-08T11:11:11.972Z,103343.21
2023-02-08T11:13:50.923Z,103349.88
2023-02-08T11:16:31.908Z,103348.41
2023-02-08T11:19:07.410Z,103338.09
2023-02-08T11:21:40.586Z,103349.13
2023-02-08T11:24:30.256Z,103353.48
2023-02-08T11:27:02.682Z,103353.91
2023-02-08T11:29:32.538Z,103354.66
2023-02-08T11:32:06.471Z,103353.70
2023-02-08T11:34:43.752Z,103360.75
2023-02-08T11:37:31.861Z,103362.46
2023-02-08T11:40:07.060Z,103358.94
2023-02-08T11:42:40.697Z,103358.05
2023-02-08T11:45:20.915Z,103357.59
2023-02-08T11:47:49.667Z,103353.57
2023-02-08T11:50:27.107Z,103354.87
2023-02-08T11:52:59.405Z,103349.50
2023-02-08T11:55:30.946Z,103349.12
2023-02-08T11:58:25.717Z,103354.08
2023-02-08T12:01:06.800Z,103351.47
2023-02-08T12:03:40.416Z,103355.55
2023-02-08T12:06:38.544Z,103347.41
2023-02-08T12:09:23.142Z,103347.31
2023-02-08T12:12:03.602Z,103347.31
2023-02-08T12:15:09.181Z,103349.54
2023-02-08T12:18:14.671Z,103344.45
2023-02-08T12:20:47.651Z,103345.58
2023-02-08T12:23:32.432Z,103348.97
2023-02-08T12:26:25.657Z,103351.53
2023-02-08T12:29:18.358Z,103345.18
2023-02-08T12:32:14.078Z,103350.47
2023-02-08T12:35:03.997Z,103349.06
2023-02-08T12:38:11.199Z,103340.12
2023-02-08T12:40:55.173Z,103343.28
2023-02-08T12:43:32.897Z,103344.63
2023-02-08T12:46:29.593Z,103341.89
2023-02-08T12:49:45.016Z,103340.96
2023-02-08T12:52:29.264Z,103344.39
2023-02-08T12:55:03.894Z,103340.22
2023-02-08T12:57:33.043Z,103342.87
2023-02-08T13:00:10.802Z,103341.94
2023-02-08T13:02:49.115Z,103337.67
2023-02-08T13:05:20.372Z,103340.59
2023-02-08T13:07:51.462Z,103344.63
2023-02-08T13:10:31.683Z,103340.17
2023-02-08T13:13:23.280Z,103334.94
2023-02-08T13:16:01.164Z,103334.98
2023-02-08T13:18:35.475Z,103333.27
2023-02-08T13:21:08.361Z,103325.30
2023-02-08T13:23:52.366Z,103319.14
2023-02-08T13:26:26.399Z,103326.27
2023-02-08T13:28:58.380Z,103321.87
2023-02-08T13:31:35.750Z,103315.57
2023-02-08T13:34:29.529Z,103311.13
2023-02-08T13:37:01.809Z,103313.44
2023-02-08T13:39:40.099Z,103308.99
2023-02-08T13:42:22.387Z,103310.33
2023-02-08T13:44:55.214Z,103307.19
2023-02-08T13:47:41.261Z,103304.41
2023-02-08T13:50:38.184Z,103296.76
2023-02-08T13:53:07.515Z,103292.68
2023-02-08T13:55:56.321Z,103284.66
2023-02-08T13:58:49.996Z,103291.84
2023-02-08T14:01:24.448Z,103291.43
2023-02-08T14:04:21.962Z,103291.89
2023-02-08T14:07:29.021Z,103295.05
2023-02-08T14:10:30.444Z,103286.98
2023-02-08T14:13:24.883Z,103289.67
2023-02-08T14:16:38.446Z,103287.08
2023-02-08T14:19:24.190Z,103294.21
2023-02-08T14:22:16.420Z,103295.05
2023-02-08T14:24:52.337Z,103294.63
2023-02-08T14:27:30.021Z,103295.19
2023-02-08T14:30:05.016Z,103291.20
2023-02-08T14:32:38.231Z,103299.27
2023-02-08T14:35:25.477Z,103297.50
2023-02-08T14:38:23.007Z,103296.67
2023-02-08T14:40:54.851Z,103296.31
2023-02-08T14:43:40.070Z,103292.83
2023-02-08T14:46:42.981Z,103295.52
2023-02-08T14:49:18.152Z,103294.22
2023-02-08T14:52:00.721Z,103293.30
2023-02-08T14:54:43.407Z,103295.52
2023-02-08T14:57:34.730Z,103299.18
2023-02-08T15:00:12.656Z,103293.39
2023-02-08T15:02:43.555Z,103302.38
2023-02-08T15:05:25.317Z,103297.00
2023-02-08T15:08:00.573Z,103293.90
2023-02-08T15:10:30.080Z,103293.06
2023-02-08T15:13:04.002Z,103292.97
2023-02-08T15:15:41.537Z,103294.83
2023-02-08T15:18:19.790Z,103285.56
2023-02-08T15:21:06.410Z,103290.19
2023-02-08T15:23:36.424Z,103288.05
2023-02-08T15:26:08.911Z,103281.84
2023-02-08T15:28:37.895Z,103283.65
2023-02-08T15:31:09.946Z,103280.17
2023-02-08T15:33:41.456Z,103287.81
2023-02-08T15:36:33.002Z,103287.39
2023-02-08T15:39:06.542Z,103283.87
2023-02-08T15:41:35.501Z,103285.30
2023-02-08T15:44:19.148Z,103289.84
2023-02-08T15:46:48.487Z,103278.39
2023-02-08T15:49:28.985Z,103278.56
2023-02-08T15:51:57.652Z,103286.28
2023-02-08T15:54:26.417Z,103286.84
2023-02-08T15:57:08.524Z,103286.51
2023-02-08T15:59:39.589Z,103293.81
2023-02-08T16:02:32.321Z,103294.35
2023-02-08T16:05:02.514Z,103295.27
